Time;durP1;ratioP1;P1;durP2;ratioP2;P2;SDS_P1;SDS_P2;PMS_P1;PMS_P2;Temp;Humidity;BMP_temperature;BMP_pressure;BME280_temperature;BME280_humidity;BME280_pressure;Samples;Min_cycle;Max_cycle;Signal;HPM_P1;HPM_P2
2022/05/29 00:00:53;;;;;;;2.92;2.00;;;;;;;19.12;53.70;99393.72;1794625;78;21057;-58
2022/05/29 00:03:19;;;;;;;2.05;1.50;;;;;;;19.12;53.77;99401.80;1784604;79;20995;-59
2022/05/29 00:05:48;;;;;;;2.08;1.87;;;;;;;19.10;53.73;99400.67;1802754;79;21120;-59
2022/05/29 00:08:25;;;;;;;3.12;1.90;;;;;;;19.10;53.80;99399.86;1798690;79;21057;-58
2022/05/29 00:10:51;;;;;;;5.20;1.80;;;;;;;19.09;53.85;99402.28;1804835;79;21249;-60
2022/05/29 00:13:19;;;;;;;1.55;1.45;;;;;;;19.07;53.87;99405.73;1789839;78;21041;-59
2022/05/29 00:15:47;;;;;;;3.58;1.90;;;;;;;19.06;53.88;99396.81;1792171;79;21038;-60
2022/05/29 00:18:15;;;;;;;2.12;1.80;;;;;;;19.05;54.02;99400.04;1789332;79;21053;-58
2022/05/29 00:20:46;;;;;;;2.12;1.82;;;;;;;19.04;53.88;99399.77;1801487;78;22053;-58
2022/05/29 00:23:12;;;;;;;1.75;1.60;;;;;;;19.04;54.03;99395.72;1787681;79;21168;-61
2022/05/29 00:25:41;;;;;;;2.00;1.55;;;;;;;19.03;54.02;99402.14;1806281;79;22071;-58
2022/05/29 00:28:08;;;;;;;3.85;1.87;;;;;;;19.03;53.96;99398.11;1788317;79;21069;-58
2022/05/29 00:30:34;;;;;;;2.08;1.80;;;;;;;19.03;53.90;99390.56;1782476;78;21494;-59
2022/05/29 00:33:01;;;;;;;2.00;1.80;;;;;;;19.02;53.89;99400.48;1801467;79;21052;-58
2022/05/29 00:35:28;;;;;;;2.35;1.60;;;;;;;19.02;53.86;99390.25;1774576;78;21178;-59
2022/05/29 00:37:55;;;;;;;2.58;1.67;;;;;;;19.02;53.87;99394.30;1795305;79;20995;-59
2022/05/29 00:40:33;;;;;;;2.25;1.92;;;;;;;19.02;53.74;99390.25;1800039;79;21046;-58
2022/05/29 00:42:59;;;;;;;3.05;2.20;;;;;;;19.00;53.79;99386.45;1802914;79;22156;-58
2022/05/29 00:45:26;;;;;;;2.45;1.80;;;;;;;19.00;53.74;99382.41;1805047;78;21015;-59
2022/05/29 00:47:53;;;;;;;2.25;1.67;;;;;;;18.99;53.81;99388.86;1724080;80;21135;-58
2022/05/29 00:50:22;;;;;;;3.42;1.75;;;;;;;18.99;53.79;99392.89;1796778;79;21471;-59
2022/05/29 00:52:49;;;;;;;3.40;1.90;;;;;;;18.99;53.79;99381.31;1794597;78;21015;-60
2022/05/29 00:55:23;;;;;;;2.80;1.70;;;;;;;18.98;53.65;99377.78;1799040;79;21018;-58
2022/05/29 00:58:02;;;;;;;2.45;1.92;;;;;;;18.97;53.60;99380.20;1797074;79;21037;-60
2022/05/29 01:00:30;;;;;;;1.82;1.65;;;;;;;18.97;53.47;99386.11;1772680;78;21292;-58
2022/05/29 01:03:00;;;;;;;3.27;2.08;;;;;;;18.96;53.50;99395.22;1792943;78;21065;-58
2022/05/29 01:05:29;;;;;;;2.52;1.80;;;;;;;18.95;53.36;99417.30;1764859;79;21038;-57
2022/05/29 01:08:11;;;;;;;3.17;1.80;;;;;;;18.95;53.49;99417.30;1799588;79;21078;-59
2022/05/29 01:11:08;;;;;;;2.10;1.65;;;;;;;18.96;53.50;99412.72;1800982;79;21088;-59
2022/05/29 01:13:52;;;;;;;2.10;1.60;;;;;;;18.95;53.45;99411.06;1788848;78;21143;-59
2022/05/29 01:16:48;;;;;;;3.02;1.77;;;;;;;18.93;53.51;99408.63;1794152;79;21096;-59
2022/05/29 01:20:00;;;;;;;2.47;1.80;;;;;;;18.93;53.54;99414.52;1746845;78;21021;-59
2022/05/29 01:23:08;;;;;;;2.27;1.50;;;;;;;18.91;53.53;99404.50;1795920;79;21046;-58
2022/05/29 01:25:53;;;;;;;5.83;1.90;;;;;;;18.88;53.53;99405.80;1804714;77;21027;-58
2022/05/29 01:28:48;;;;;;;2.40;1.50;;;;;;;18.85;53.55;99412.98;1803493;78;21021;-59
2022/05/29 01:31:52;;;;;;;2.35;1.62;;;;;;;18.83;53.64;99409.70;1787992;79;23714;-58
2022/05/29 01:34:45;;;;;;;3.12;1.90;;;;;;;18.81;53.60;99419.38;1813832;78;20997;-59
2022/05/29 01:37:29;;;;;;;2.40;1.80;;;;;;;18.80;53.74;99414.21;1814981;78;21499;-59
2022/05/29 01:40:18;;;;;;;2.15;1.80;;;;;;;18.79;53.65;99424.09;1814674;78;20994;-58
2022/05/29 01:43:03;;;;;;;1.57;1.47;;;;;;;18.79;53.72;99430.02;1795566;79;21239;-58
2022/05/29 01:45:53;;;;;;;2.20;1.62;;;;;;;18.76;53.60;99425.92;1784614;78;21138;-58
2022/05/29 01:48:49;;;;;;;3.10;1.60;;;;;;;18.76;53.68;99427.27;1808038;77;21082;-59
2022/05/29 01:51:20;;;;;;;4.83;2.00;;;;;;;18.76;53.48;99418.38;1815981;79;20986;-59
2022/05/29 01:54:04;;;;;;;2.62;1.62;;;;;;;18.76;53.44;99421.08;1817662;78;21076;-59
2022/05/29 01:56:34;;;;;;;3.00;2.30;;;;;;;18.74;53.44;99419.14;1810717;78;21150;-58
2022/05/29 01:59:14;;;;;;;2.20;1.82;;;;;;;18.73;53.26;99418.30;1793926;78;21518;-58
2022/05/29 02:01:45;;;;;;;2.72;2.05;;;;;;;18.73;53.31;99426.91;1813569;78;21057;-59
2022/05/29 02:04:17;;;;;;;2.50;2.02;;;;;;;18.73;53.31;99430.94;1816101;78;21022;-58
2022/05/29 02:09:40;;;;;;;2.15;1.50;;;;;;;18.72;53.37;99436.85;1804475;78;21266;-58
2022/05/29 02:12:10;;;;;;;4.92;1.82;;;;;;;18.72;53.49;99438.73;1805417;78;21026;-58
2022/05/29 02:14:40;;;;;;;3.10;2.00;;;;;;;18.72;53.38;99438.73;1802033;79;20998;-59
2022/05/29 02:17:16;;;;;;;2.25;2.08;;;;;;;18.71;53.48;99449.19;1782596;79;21029;-59
2022/05/29 02:19:53;;;;;;;1.90;1.60;;;;;;;18.71;53.50;99447.84;1805483;79;21521;-60
2022/05/29 02:22:27;;;;;;;5.00;1.85;;;;;;;18.71;53.35;99442.45;1787922;79;21083;-58
2022/05/29 02:25:04;;;;;;;2.37;1.80;;;;;;;18.70;53.33;99457.78;1805588;79;21077;-59
2022/05/29 02:27:38;;;;;;;2.85;1.77;;;;;;;18.69;53.47;99464.20;1781519;78;21506;-59
2022/05/29 02:30:06;;;;;;;3.12;1.72;;;;;;;18.67;53.36;99453.66;1800624;79;20990;-58
2022/05/29 02:33:21;;;;;;;1.80;1.70;;;;;;;18.67;53.44;99450.97;1805897;79;21017;-57
2022/05/29 02:36:23;;;;;;;2.37;1.52;;;;;;;18.67;53.54;99475.72;1745848;80;21952;-59
2022/05/29 02:39:21;;;;;;;2.25;1.87;;;;;;;18.67;53.68;99471.69;1743309;80;21029;-58
2022/05/29 02:42:09;;;;;;;2.55;1.50;;;;;;;18.64;53.63;99463.55;1799407;78;21029;-58
2022/05/29 02:45:03;;;;;;;1.95;1.60;;;;;;;18.62;53.53;99455.39;1760607;78;21056;-58
2022/05/29 02:47:51;;;;;;;3.10;2.02;;;;;;;18.61;53.65;99460.49;1783470;79;21034;-59
2022/05/29 02:50:35;;;;;;;1.67;1.50;;;;;;;18.59;53.72;99471.47;1783697;79;21515;-59
2022/05/29 02:53:13;;;;;;;2.55;1.60;;;;;;;18.57;53.88;99472.23;1796401;79;21041;-58
2022/05/29 02:55:41;;;;;;;3.30;1.90;;;;;;;18.56;53.89;99462.53;1788314;78;21038;-59
2022/05/29 02:58:23;;;;;;;1.70;1.60;;;;;;;18.54;53.99;99452.49;1798147;79;21011;-58
2022/05/29 03:01:04;;;;;;;2.37;1.37;;;;;;;18.54;54.18;99453.02;1781532;79;21003;-59
2022/05/29 03:03:38;;;;;;;2.42;1.50;;;;;;;18.52;54.24;99465.88;1804018;78;21033;-59
2022/05/29 03:06:32;;;;;;;2.17;1.60;;;;;;;18.52;54.21;99456.47;1781522;78;20995;-59
2022/05/29 03:09:20;;;;;;;2.20;2.00;;;;;;;18.51;54.28;99453.50;1796375;79;21034;-59
2022/05/29 03:11:47;;;;;;;2.45;1.80;;;;;;;18.51;54.32;99446.77;1802602;79;20986;-60
2022/05/29 03:14:34;;;;;;;3.17;1.55;;;;;;;18.50;54.28;99441.08;1790873;78;21525;-60
2022/05/29 03:17:13;;;;;;;2.75;1.62;;;;;;;18.50;54.25;99438.39;1784751;78;21146;-59
2022/05/29 03:19:52;;;;;;;2.10;1.57;;;;;;;18.48;54.21;99437.27;1800467;78;21041;-58
2022/05/29 03:22:46;;;;;;;2.80;1.70;;;;;;;18.48;54.36;99446.69;1805722;79;21496;-59
2022/05/29 03:25:16;;;;;;;;;;;;;;;18.47;54.46;99448.56;1793371;79;21049;-59
2022/05/29 03:29:21;;;;;;;2.50;1.60;;;;;;;18.49;54.59;99451.03;1793486;78;25003;-59
2022/05/29 03:31:48;;;;;;;3.55;1.80;;;;;;;18.43;54.62;99453.28;1750523;80;21041;-58
2022/05/29 03:34:14;;;;;;;3.17;1.90;;;;;;;18.44;54.62;99460.29;1755008;81;21014;-58
2022/05/29 03:36:46;;;;;;;2.33;1.65;;;;;;;18.45;54.61;99461.95;1745076;80;21487;-59
2022/05/29 03:39:13;;;;;;;4.53;2.37;;;;;;;18.44;54.73;99454.91;1733946;81;21077;-59
2022/05/29 03:41:46;;;;;;;4.20;1.92;;;;;;;18.44;54.69;99450.34;1729003;80;21044;-60
2022/05/29 03:44:14;;;;;;;2.85;1.67;;;;;;;18.45;54.62;99456.56;1743716;80;21077;-59
2022/05/29 03:46:40;;;;;;;3.58;1.87;;;;;;;18.45;54.66;99467.33;1751789;80;21185;-59
2022/05/29 03:49:07;;;;;;;2.80;1.80;;;;;;;18.47;54.68;99473.30;1753124;81;20986;-59
2022/05/29 03:51:35;;;;;;;2.10;1.60;;;;;;;18.47;54.67;99477.33;1756996;81;20965;-60
2022/05/29 03:54:03;;;;;;;3.75;1.98;;;;;;;18.47;54.68;99476.80;1756045;81;21616;-59
2022/05/29 03:56:30;;;;;;;2.52;1.80;;;;;;;18.49;54.72;99487.88;1749272;80;21133;-59
2022/05/29 03:58:57;;;;;;;2.75;1.98;;;;;;;18.49;54.75;99484.65;1735566;80;21138;-60
2022/05/29 04:01:24;;;;;;;2.83;1.90;;;;;;;18.50;54.66;99490.31;1754651;80;21257;-59
2022/05/29 04:03:53;;;;;;;2.05;1.65;;;;;;;18.51;54.67;99491.16;1750481;80;21112;-59
2022/05/29 04:06:23;;;;;;;2.95;2.00;;;;;;;18.51;54.70;99494.66;1755035;80;21023;-59
2022/05/29 04:14:21;;;;;;;2.90;1.90;;;;;;;18.56;54.51;99504.73;1758963;80;21034;-59
2022/05/29 04:16:48;;;;;;;2.90;2.00;;;;;;;18.56;54.51;99500.19;1757067;81;21034;-58
2022/05/29 04:19:15;;;;;;;3.25;1.85;;;;;;;18.57;54.50;99504.51;1757064;81;21009;-59
2022/05/29 04:21:42;;;;;;;2.50;1.82;;;;;;;18.59;54.48;99504.28;1755917;81;21073;-59
2022/05/29 04:24:08;;;;;;;2.00;1.67;;;;;;;18.60;54.47;99504.06;1756977;81;21220;-59
2022/05/29 04:26:36;;;;;;;3.60;2.15;;;;;;;18.60;54.45;99493.30;1747721;80;20994;-62
2022/05/29 04:29:03;;;;;;;4.40;2.85;;;;;;;18.63;55.78;99509.51;1744583;81;21078;-62
2022/05/29 04:31:32;;;;;;;2.58;1.80;;;;;;;18.69;57.84;99509.12;1749134;81;21041;-63
2022/05/29 04:33:58;;;;;;;3.95;1.92;;;;;;;18.78;58.27;99515.84;1733124;81;21089;-62
2022/05/29 04:36:25;;;;;;;2.33;1.95;;;;;;;18.89;58.12;99515.61;1753989;81;21090;-62
2022/05/29 04:38:52;;;;;;;3.65;1.85;;;;;;;19.00;58.00;99520.22;1746775;81;21061;-63
2022/05/29 04:41:25;;;;;;;2.52;1.60;;;;;;;19.10;57.56;99519.67;1737550;82;21022;-63
2022/05/29 04:43:47;;;;;;;3.12;1.90;;;;;;;19.19;57.30;99524.50;1725783;82;21022;-62
2022/05/29 04:46:14;;;;;;;1.95;1.75;;;;;;;19.29;57.14;99520.43;1715068;82;21128;-62
2022/05/29 04:48:41;;;;;;;3.27;1.75;;;;;;;19.38;56.89;99528.48;1723677;82;21151;-62
2022/05/29 04:51:07;;;;;;;2.35;1.90;;;;;;;19.48;56.61;99530.61;1731417;81;21631;-62
2022/05/29 04:53:34;;;;;;;2.72;1.70;;;;;;;19.56;56.17;99528.91;1724878;82;21506;-62
2022/05/29 04:56:00;;;;;;;2.52;1.87;;;;;;;19.63;55.86;99536.37;1726463;82;21037;-62
2022/05/29 04:58:28;;;;;;;2.52;1.85;;;;;;;19.70;55.72;99531.70;1733214;82;21006;-63
2022/05/29 05:00:58;;;;;;;2.58;2.00;;;;;;;19.77;55.54;99533.77;1729243;82;22176;-63
2022/05/29 05:03:24;;;;;;;2.10;1.90;;;;;;;19.81;55.38;99532.24;1727305;82;21029;-63
2022/05/29 05:05:51;;;;;;;3.02;1.62;;;;;;;19.91;55.13;99521.41;1720719;83;21062;-63
2022/05/29 05:08:17;;;;;;;2.27;2.08;;;;;;;19.96;54.90;99522.88;1728711;82;21052;-61
2022/05/29 05:10:44;;;;;;;2.80;1.92;;;;;;;20.00;54.58;99530.25;1700384;82;21051;-63
2022/05/29 05:13:11;;;;;;;2.33;2.10;;;;;;;20.07;54.37;99536.05;1711431;82;21100;-62
2022/05/29 05:15:38;;;;;;;2.20;2.00;;;;;;;20.13;54.14;99536.48;1737033;82;21081;-63
2022/05/29 05:18:06;;;;;;;3.72;2.10;;;;;;;20.17;53.99;99539.80;1730980;82;21049;-63
2022/05/29 05:20:33;;;;;;;3.47;2.00;;;;;;;20.22;53.76;99537.23;1730180;82;21056;-62
2022/05/29 05:23:00;;;;;;;2.75;1.87;;;;;;;20.27;53.69;99539.74;1728849;82;21021;-61
2022/05/29 05:25:26;;;;;;;2.80;1.70;;;;;;;20.31;53.91;99536.86;1735382;82;21237;-63
2022/05/29 05:27:53;;;;;;;3.58;1.67;;;;;;;20.36;54.05;99539.68;1715502;82;21528;-62
2022/05/29 05:30:20;;;;;;;3.72;1.82;;;;;;;20.39;54.11;99531.09;1709818;82;21097;-62
2022/05/29 05:32:46;;;;;;;2.83;1.65;;;;;;;20.45;53.95;99541.47;1708200;82;21546;-63
2022/05/29 05:35:14;;;;;;;1.72;1.52;;;;;;;20.48;53.87;99539.66;1734409;82;21086;-63
2022/05/29 05:37:42;;;;;;;4.58;2.10;;;;;;;20.52;53.84;99541.63;1746535;82;22189;-63
2022/05/29 05:40:13;;;;;;;1.75;1.65;;;;;;;20.56;53.87;99544.13;1720567;82;21060;-62
2022/05/29 05:42:39;;;;;;;1.92;1.60;;;;;;;20.60;53.51;99548.02;1719986;82;20990;-64
2022/05/29 05:45:07;;;;;;;1.92;1.70;;;;;;;20.64;53.35;99544.86;1695443;82;21037;-61
2022/05/29 05:47:34;;;;;;;1.98;1.70;;;;;;;20.65;53.04;99543.28;1745571;82;21526;-63
2022/05/29 05:50:01;;;;;;;2.87;1.80;;;;;;;20.69;53.00;99539.03;1743659;82;21146;-62
2022/05/29 05:52:27;;;;;;;5.12;2.85;;;;;;;20.73;53.04;99546.94;1704956;82;21010;-62
2022/05/29 05:54:53;;;;;;;3.17;2.42;;;;;;;20.77;52.90;99551.34;1716244;82;21097;-62
2022/05/29 05:57:20;;;;;;;3.77;1.80;;;;;;;20.79;52.64;99552.73;1714109;82;21021;-62
2022/05/29 05:59:47;;;;;;;2.17;1.80;;;;;;;20.84;52.54;99552.53;1720556;82;21045;-63
2022/05/29 06:02:13;;;;;;;2.80;1.70;;;;;;;20.87;52.36;99547.48;1740347;82;21383;-63
2022/05/29 06:04:42;;;;;;;1.60;1.50;;;;;;;20.90;52.04;99546.17;1744571;82;21009;-62
2022/05/29 06:07:09;;;;;;;3.45;1.87;;;;;;;20.94;51.89;99544.66;1735521;80;21046;-63
2022/05/29 06:09:36;;;;;;;2.22;1.75;;;;;;;20.96;51.70;99551.44;1703712;82;21028;-62
2022/05/29 06:12:07;;;;;;;3.20;1.72;;;;;;;20.98;51.55;99553.37;1719060;82;20994;-63
2022/05/29 06:14:35;;;;;;;1.45;1.35;;;;;;;21.00;51.52;99543.14;1725412;82;21207;-63
2022/05/29 06:17:03;;;;;;;2.30;1.92;;;;;;;21.03;51.40;99546.42;1714254;82;20998;-64
2022/05/29 06:19:30;;;;;;;2.22;1.50;;;;;;;21.06;51.24;99543.25;1743039;82;20996;-63
2022/05/29 06:21:57;;;;;;;1.45;1.30;;;;;;;21.09;51.09;99546.26;1743746;82;21168;-62
2022/05/29 06:24:23;;;;;;;1.98;1.52;;;;;;;21.12;50.93;99547.67;1746095;82;21019;-62
2022/05/29 06:26:50;;;;;;;1.57;1.42;;;;;;;21.15;50.87;99551.22;1737845;81;22536;-64
2022/05/29 06:29:18;;;;;;;1.95;1.47;;;;;;;21.17;50.73;99555.85;1719265;81;21070;-62
2022/05/29 06:31:45;;;;;;;2.85;1.65;;;;;;;21.18;50.54;99544.81;1743581;81;21090;-64
2022/05/29 06:34:11;;;;;;;1.90;1.60;;;;;;;21.20;50.42;99546.73;1749515;81;21168;-63
2022/05/29 06:36:40;;;;;;;3.40;1.70;;;;;;;21.24;50.37;99557.06;1717630;82;21072;-63
2022/05/29 06:39:06;;;;;;;2.80;1.50;;;;;;;21.26;50.14;99560.34;1739476;81;22422;-63
2022/05/29 06:41:34;;;;;;;1.98;1.67;;;;;;;21.29;50.01;99554.47;1743102;81;21186;-63
2022/05/29 06:44:00;;;;;;;1.95;1.42;;;;;;;21.30;49.87;99556.91;1749651;81;21502;-63
2022/05/29 06:46:27;;;;;;;2.05;1.70;;;;;;;21.32;49.79;99561.53;1753206;81;21069;-63
2022/05/29 06:48:54;;;;;;;2.45;1.30;;;;;;;21.34;49.67;99566.19;1752094;80;21088;-64
2022/05/29 06:51:24;;;;;;;2.05;1.47;;;;;;;21.35;49.34;99555.66;1741186;81;21114;-63
2022/05/29 06:53:53;;;;;;;2.37;1.80;;;;;;;21.38;49.42;99563.80;1716971;82;20985;-64
2022/05/29 06:56:20;;;;;;;4.20;1.87;;;;;;;21.40;49.31;99563.02;1747474;80;21061;-64
2022/05/29 06:58:48;;;;;;;2.45;1.35;;;;;;;21.44;49.11;99568.79;1730237;81;21085;-63
2022/05/29 07:07:00;;;;;;;2.02;1.57;;;;;;;21.47;48.40;99570.48;1716021;82;21495;-64
2022/05/29 07:09:33;;;;;;;3.58;1.60;;;;;;;21.48;48.38;99567.23;1715224;82;21041;-63
2022/05/29 07:12:13;;;;;;;3.75;1.52;;;;;;;21.48;47.84;99565.88;1726463;82;25738;-63
2022/05/29 07:14:51;;;;;;;2.65;1.80;;;;;;;21.48;47.79;99568.08;1723247;82;20990;-63
2022/05/29 07:17:22;;;;;;;2.47;1.50;;;;;;;21.49;48.14;99570.23;1724450;82;21338;-64
2022/05/29 07:19:49;;;;;;;4.83;1.35;;;;;;;21.50;47.88;99570.00;1728342;82;21053;-63
2022/05/29 07:22:15;;;;;;;2.67;1.50;;;;;;;21.52;47.54;99569.77;1746739;80;21565;-64
2022/05/29 07:24:43;;;;;;;3.05;1.60;;;;;;;21.53;48.16;99568.69;1751490;80;21078;-64
2022/05/29 07:27:10;;;;;;;3.25;1.52;;;;;;;21.56;47.66;99566.31;1748225;81;21518;-64
2022/05/29 07:29:38;;;;;;;2.02;1.35;;;;;;;21.56;46.57;99569.56;1735697;81;21138;-64
2022/05/29 07:32:06;;;;;;;2.17;1.65;;;;;;;21.52;45.84;99576.52;1730033;81;21084;-64
2022/05/29 07:34:32;;;;;;;1.52;1.42;;;;;;;21.48;46.23;99586.16;1740043;80;21037;-65
2022/05/29 07:37:05;;;;;;;2.85;1.75;;;;;;;21.41;45.43;99573.59;1747732;80;21119;-63
2022/05/29 07:39:44;;;;;;;2.17;1.40;;;;;;;21.36;46.19;99577.57;1733320;80;21033;-64
2022/05/29 07:44:56;;;;;;;1.95;1.42;;;;;;;21.41;47.03;99587.09;1741843;81;21028;-65
2022/05/29 07:47:27;;;;;;;2.87;1.60;;;;;;;21.47;47.45;99573.72;1745369;80;21078;-62
2022/05/29 07:49:53;;;;;;;1.45;1.35;;;;;;;21.52;47.21;99574.63;1744089;80;21065;-62
2022/05/29 07:52:20;;;;;;;2.40;1.55;;;;;;;21.57;46.54;99577.40;1747708;80;21502;-63
2022/05/29 07:54:46;;;;;;;2.10;1.35;;;;;;;21.61;46.99;99576.38;1752009;80;21355;-64
2022/05/29 07:57:12;;;;;;;1.75;1.45;;;;;;;21.64;46.48;99582.66;1742671;80;21553;-63
2022/05/29 07:59:40;;;;;;;8.33;2.98;;;;;;;21.67;46.12;99575.42;1739932;80;21089;-63
2022/05/29 08:02:07;;;;;;;18.30;7.47;;;;;;;21.66;44.72;99582.42;1740766;80;21076;-65
2022/05/29 08:04:34;;;;;;;17.25;6.60;;;;;;;21.60;45.49;99571.52;1733816;80;21037;-59
2022/05/29 08:07:02;;;;;;;8.23;3.98;;;;;;;21.60;46.80;99568.81;1729789;81;21141;-66
2022/05/29 08:09:29;;;;;;;11.43;4.45;;;;;;;21.66;46.12;99568.37;1747205;80;21007;-58
2022/05/29 08:11:56;;;;;;;4.75;2.72;;;;;;;21.71;45.92;99577.92;1746674;80;21080;-62
2022/05/29 08:14:24;;;;;;;6.12;2.65;;;;;;;21.76;44.91;99584.75;1754129;80;21030;-61
2022/05/29 08:16:50;;;;;;;3.85;2.02;;;;;;;21.79;44.09;99588.86;1752676;81;21108;-61
2022/05/29 08:19:17;;;;;;;4.40;2.02;;;;;;;21.79;43.81;99581.56;1745919;80;21180;-62
2022/05/29 08:21:44;;;;;;;3.35;2.00;;;;;;;21.79;43.76;99585.62;1750418;80;21034;-61
2022/05/29 08:32:26;;;;;;;5.28;2.27;;;;;;;21.77;45.35;99599.11;1725667;80;21145;-60
2022/05/29 08:34:53;;;;;;;6.37;2.27;;;;;;;21.79;46.09;99595.63;1689938;82;21124;-59
2022/05/29 08:37:21;;;;;;;3.45;1.75;;;;;;;21.82;47.03;99600.52;1692667;82;21514;-61
2022/05/29 08:39:47;;;;;;;3.95;1.77;;;;;;;21.85;43.90;99611.41;1736986;80;21026;-59
2022/05/29 08:42:16;;;;;;;3.20;2.20;;;;;;;21.80;42.67;99610.77;1730031;81;21594;-60
2022/05/29 08:44:50;;;;;;;2.62;2.00;;;;;;;21.72;43.33;99606.58;1732615;82;21154;-59
2022/05/29 08:47:22;;;;;;;2.60;1.60;;;;;;;21.69;42.76;99611.14;1742979;81;21538;-60
2022/05/29 08:49:48;;;;;;;4.17;2.17;;;;;;;21.61;42.46;99602.06;1743485;82;21518;-61
2022/05/29 08:52:55;;;;;;;3.35;1.62;;;;;;;21.58;43.74;99596.63;1731109;81;21069;-60
2022/05/29 08:55:35;;;;;;;5.15;1.72;;;;;;;21.59;43.05;99602.84;1742960;82;21041;-60
2022/05/29 08:58:28;;;;;;;2.67;1.57;;;;;;;21.60;44.00;99599.09;1741212;81;21222;-62
2022/05/29 09:01:22;;;;;;;2.10;1.70;;;;;;;21.65;44.54;99603.20;1701287;82;21527;-61
2022/05/29 09:03:59;;;;;;;3.10;1.70;;;;;;;21.68;42.58;99609.48;1704961;84;21041;-60
2022/05/29 09:06:33;;;;;;;5.10;2.05;;;;;;;21.68;43.07;99603.27;1728942;81;21034;-60
2022/05/29 09:09:33;;;;;;;2.20;1.55;;;;;;;21.69;44.12;99594.92;1743551;82;21059;-60
2022/05/29 09:12:25;;;;;;;2.22;1.70;;;;;;;21.77;44.54;99588.30;1739288;82;21015;-61
2022/05/29 09:14:57;;;;;;;2.50;1.72;;;;;;;21.88;44.23;99594.67;1743427;81;21488;-60
2022/05/29 09:17:35;;;;;;;1.95;1.27;;;;;;;21.93;42.81;99598.81;1742462;81;21042;-60
2022/05/29 09:20:13;;;;;;;4.40;2.17;;;;;;;21.94;43.79;99591.81;1743580;81;20979;-61
2022/05/29 09:22:44;;;;;;;5.35;1.60;;;;;;;22.03;43.37;99588.69;1743426;82;21059;-60
2022/05/29 09:25:25;;;;;;;5.65;1.77;;;;;;;22.07;42.22;99589.28;1743384;82;21097;-60
2022/05/29 09:27:51;;;;;;;2.65;1.30;;;;;;;22.09;41.54;99586.34;1697051;83;21070;-61
2022/05/29 09:30:18;;;;;;;3.17;1.40;;;;;;;22.07;40.36;99597.40;1743161;82;21031;-60
2022/05/29 09:32:56;;;;;;;3.40;1.72;;;;;;;22.05;41.39;99613.06;1742217;82;21280;-60
2022/05/29 09:35:47;;;;;;;2.22;1.30;;;;;;;22.07;40.89;99598.75;1712347;82;21580;-60
2022/05/29 09:38:28;;;;;;;1.95;1.40;;;;;;;22.05;40.25;99598.18;1743031;82;21131;-61
2022/05/29 09:41:09;;;;;;;2.70;1.42;;;;;;;22.04;40.47;99596.56;1707594;84;21011;-60
2022/05/29 09:43:37;;;;;;;2.15;1.35;;;;;;;22.08;40.20;99596.86;1704955;84;21101;-60
2022/05/29 09:46:22;;;;;;;2.12;1.30;;;;;;;22.11;39.71;99595.84;1706557;84;21007;-61
2022/05/29 09:51:50;;;;;;;4.28;1.47;;;;;;;22.17;40.52;99602.98;1686388;83;21194;-59
2022/05/29 09:54:29;;;;;;;1.32;1.20;;;;;;;22.24;40.18;99595.22;1707505;84;21033;-61
2022/05/29 09:57:10;;;;;;;1.95;1.22;;;;;;;22.29;40.09;99577.72;1706686;83;21081;-60
2022/05/29 09:59:42;;;;;;;3.17;1.40;;;;;;;22.35;40.85;99579.45;1700119;83;21025;-59
2022/05/29 10:02:29;;;;;;;1.47;1.30;;;;;;;22.43;40.57;99589.84;1704890;84;21050;-60
2022/05/29 10:05:00;;;;;;;1.75;1.35;;;;;;;22.49;39.76;99588.84;1743323;81;20999;-60
2022/05/29 10:07:41;;;;;;;1.30;1.20;;;;;;;22.54;39.25;99592.97;1741427;81;21070;-60
2022/05/29 10:10:13;;;;;;;1.47;1.17;;;;;;;22.58;38.53;99590.05;1743146;82;21558;-60
2022/05/29 10:12:46;;;;;;;2.13;1.20;;;;;;;22.62;38.40;99601.20;1745476;81;21042;-60
2022/05/29 10:15:30;;;;;;;3.67;1.60;;;;;;;22.67;38.56;99585.00;1743293;82;21468;-61
2022/05/29 10:18:00;;;;;;;2.40;1.37;;;;;;;22.76;38.89;99590.27;1707232;83;21120;-60
2022/05/29 10:20:44;;;;;;;2.58;1.45;;;;;;;22.87;39.33;99593.92;1739472;82;21054;-60
2022/05/29 10:23:14;;;;;;;2.42;1.25;;;;;;;22.96;37.72;99587.52;1737746;82;21046;-60
2022/05/29 10:25:54;;;;;;;3.05;1.20;;;;;;;23.02;37.32;99593.81;1692507;84;20987;-60
2022/05/29 10:28:24;;;;;;;1.72;1.27;;;;;;;23.06;37.16;99600.38;1706920;84;21053;-60
2022/05/29 10:30:58;;;;;;;2.87;1.40;;;;;;;23.11;36.94;99587.71;1707303;83;21072;-60
2022/05/29 10:33:27;;;;;;;1.32;1.22;;;;;;;23.18;36.53;99594.30;1707458;84;21545;-59
2022/05/29 10:36:16;;;;;;;2.25;1.55;;;;;;;23.25;36.22;99589.48;1705583;82;21150;-59
2022/05/29 10:38:44;;;;;;;1.60;1.25;;;;;;;23.30;36.02;99594.96;1707522;84;21073;-61
2022/05/29 10:41:12;;;;;;;2.33;1.27;;;;;;;23.36;35.47;99602.61;1706486;84;21030;-60
2022/05/29 10:43:47;;;;;;;2.52;1.55;;;;;;;23.42;35.25;99602.94;1707459;84;21147;-60
2022/05/29 10:46:18;;;;;;;2.22;1.40;;;;;;;23.45;35.72;99602.95;1706638;84;21170;-62
2022/05/29 10:49:24;;;;;;;2.17;1.30;;;;;;;23.53;35.53;99602.51;1707772;84;21085;-63
2022/05/29 10:51:52;;;;;;;;;;;;;;;23.62;35.91;99608.27;1709853;83;21042;-60
2022/05/29 10:54:50;;;;;;;1.65;1.17;;;;;;;23.74;36.82;99592.11;1673662;84;20169;-59
2022/05/29 10:57:43;;;;;;;2.58;1.20;;;;;;;23.85;38.05;99599.00;1691822;84;21270;-58
2022/05/29 11:00:37;;;;;;;2.77;1.50;;;;;;;23.95;37.20;99588.22;1676078;84;21054;-59
2022/05/29 11:03:46;;;;;;;2.22;1.10;;;;;;;24.05;36.37;99588.31;1672255;85;21056;-59
2022/05/29 11:06:49;;;;;;;1.62;1.42;;;;;;;24.12;35.69;99597.57;1738605;81;21042;-59
2022/05/29 11:09:39;;;;;;;1.20;1.10;;;;;;;24.20;35.42;99605.77;1735766;82;21037;-59
2022/05/29 11:12:31;;;;;;;1.35;1.22;;;;;;;24.23;35.53;99587.06;1720230;82;21268;-59
2022/05/29 11:15:18;;;;;;;1.30;1.20;;;;;;;24.28;35.54;99588.46;1742093;82;21018;-58
2022/05/29 11:17:59;;;;;;;1.75;1.30;;;;;;;24.33;35.51;99591.19;1713806;82;21022;-59
2022/05/29 11:20:55;;;;;;;1.57;1.25;;;;;;;24.39;36.01;99585.80;1738426;82;20999;-58
2022/05/29 11:23:56;;;;;;;1.70;1.12;;;;;;;24.46;36.30;99580.41;1744235;81;21117;-59
2022/05/29 11:26:34;;;;;;;1.40;1.25;;;;;;;24.53;35.85;99587.81;1742037;82;21323;-59
2022/05/29 11:29:15;;;;;;;3.02;1.45;;;;;;;24.58;35.04;99584.84;1737013;80;20991;-59
2022/05/29 11:31:58;;;;;;;1.82;1.55;;;;;;;24.62;34.80;99581.87;1706541;83;21064;-59
2022/05/29 11:34:33;;;;;;;1.40;1.30;;;;;;;24.64;34.85;99571.01;1701260;82;21033;-60
2022/05/29 11:37:25;;;;;;;1.65;1.47;;;;;;;24.68;34.64;99571.30;1702565;82;21522;-59
2022/05/29 11:40:01;;;;;;;;;;;;;;;24.77;34.89;99573.78;1710735;82;21163;-60
2022/05/29 11:42:36;;;;;;;1.30;1.20;;;;;;;24.85;35.21;99578.70;1694143;84;20209;-58
2022/05/29 11:45:16;;;;;;;1.75;1.32;;;;;;;24.92;35.40;99573.84;1690589;84;21569;-61
2022/05/29 11:51:08;;;;;;;2.98;1.57;;;;;;;25.09;34.30;99576.34;1698592;84;21085;-59
2022/05/29 11:53:39;;;;;;;3.37;1.25;;;;;;;25.17;34.29;99574.16;1697776;83;21211;-58
2022/05/29 11:56:12;;;;;;;2.85;1.30;;;;;;;25.20;34.47;99571.73;1708220;82;21072;-60
2022/05/29 11:58:48;;;;;;;1.45;1.35;;;;;;;25.21;35.21;99577.45;1705708;82;21207;-59
2022/05/29 12:01:31;;;;;;;2.00;1.30;;;;;;;25.23;34.87;99572.59;1680643;84;21083;-59
2022/05/29 12:04:23;;;;;;;2.27;1.57;;;;;;;25.25;34.20;99570.97;1735803;80;21116;-61
2022/05/29 12:07:05;;;;;;;1.67;1.47;;;;;;;25.27;34.02;99572.88;1736949;80;21067;-60
2022/05/29 12:09:37;;;;;;;2.75;1.35;;;;;;;25.26;34.02;99565.23;1743394;81;21097;-60
2022/05/29 12:12:22;;;;;;;2.05;1.30;;;;;;;25.27;34.72;99566.88;1743269;81;20999;-59
2022/05/29 12:15:06;;;;;;;1.60;1.50;;;;;;;25.30;36.16;99570.44;1737443;81;21490;-59
2022/05/29 12:17:43;;;;;;;2.77;1.45;;;;;;;25.37;37.81;99563.91;1739527;81;21058;-60
2022/05/29 12:20:24;;;;;;;2.67;1.30;;;;;;;25.44;36.33;99573.44;1735713;82;21134;-61
2022/05/29 12:22:57;;;;;;;1.52;1.22;;;;;;;25.53;34.81;99576.42;1695315;84;21113;-60
2022/05/29 12:25:49;;;;;;;1.40;1.30;;;;;;;25.60;34.20;99574.81;1742609;82;21570;-59
2022/05/29 12:29:00;;;;;;;1.77;1.37;;;;;;;25.64;34.32;99568.55;1724212;81;21203;-60
2022/05/29 12:31:47;;;;;;;2.87;1.30;;;;;;;25.74;34.34;99571.80;1742706;81;21043;-58
2022/05/29 12:34:18;;;;;;;1.67;1.20;;;;;;;25.82;35.27;99567.72;1715814;82;21116;-60
2022/05/29 12:37:14;;;;;;;2.47;1.30;;;;;;;25.90;36.64;99566.64;1706107;83;21127;-59
2022/05/29 12:40:02;;;;;;;1.57;1.47;;;;;;;25.98;34.84;99562.58;1674757;82;21024;-59
2022/05/29 12:42:51;;;;;;;1.70;1.40;;;;;;;26.10;35.94;99570.45;1725181;82;21170;-61